Time;durP1;ratioP1;P1;durP2;ratioP2;P2;SDS_P1;SDS_P2;PMS_P1;PMS_P2;Temp;Humidity;BMP_temperature;BMP_pressure;BME280_temperature;BME280_humidity;BME280_pressure;Samples;Min_cycle;Max_cycle;Signal;HPM_P1;HPM_P2
2023/09/03 00:00:54;;;;;;;11.07;5.90;;;;;;;;;;10442327;28;20060;-80
2023/09/03 00:05:58;;;;;;;11.68;5.32;;;;;;;;;;10451858;28;20069;-80
2023/09/03 00:11:00;;;;;;;11.23;5.30;;;;;;;;;;10440254;28;20060;-80
2023/09/03 00:16:03;;;;;;;12.55;5.20;;;;;;;;;;10437170;28;20104;-80
2023/09/03 00:21:07;;;;;;;12.10;5.10;;;;;;;;;;10436357;28;20041;-80
2023/09/03 00:26:15;;;;;;;12.23;5.53;;;;;;;;;;10429732;28;20128;-80
2023/09/03 00:31:18;;;;;;;12.70;6.00;;;;;;;;;;10436295;28;20126;-80
2023/09/03 00:36:22;;;;;;;13.13;5.77;;;;;;;;;;10441368;28;20077;-80
2023/09/03 00:41:25;;;;;;;12.05;5.82;;;;;;;;;;10440399;28;20076;-80
2023/09/03 00:46:28;;;;;;;11.15;5.63;;;;;;;;;;10439767;28;20118;-80
2023/09/03 00:51:32;;;;;;;13.95;5.72;;;;;;;;;;10433481;28;20053;-80
2023/09/03 00:56:35;;;;;;;13.13;5.25;;;;;;;;;;10434833;28;20045;-80
2023/09/03 01:01:37;;;;;;;11.80;5.30;;;;;;;;;;10438925;28;20107;-81
2023/09/03 01:06:41;;;;;;;14.90;5.17;;;;;;;;;;10428273;28;20410;-78
2023/09/03 01:11:48;;;;;;;10.80;5.43;;;;;;;;;;10439048;28;20041;-79
2023/09/03 01:16:54;;;;;;;10.60;5.28;;;;;;;;;;10432080;28;20140;-79
2023/09/03 01:22:04;;;;;;;9.18;4.65;;;;;;;;;;10441777;28;20082;-79
2023/09/03 01:27:10;;;;;;;10.43;5.30;;;;;;;;;;10447027;28;20049;-79
2023/09/03 01:32:15;;;;;;;8.65;4.85;;;;;;;;;;10445487;28;20085;-79
2023/09/03 01:37:18;;;;;;;10.80;5.38;;;;;;;;;;10441034;28;20612;-79
2023/09/03 01:42:20;;;;;;;9.40;5.20;;;;;;;;;;10436247;28;20117;-80
2023/09/03 01:47:28;;;;;;;9.55;4.75;;;;;;;;;;10444357;28;20061;-79
2023/09/03 01:52:37;;;;;;;9.52;4.90;;;;;;;;;;10438214;28;20111;-79
2023/09/03 01:57:41;;;;;;;12.13;5.10;;;;;;;;;;10447232;28;20060;-79
2023/09/03 02:02:46;;;;;;;13.13;4.45;;;;;;;;;;10441826;28;20053;-79
2023/09/03 02:07:48;;;;;;;8.15;4.05;;;;;;;;;;10437201;28;20564;-82
2023/09/03 02:12:51;;;;;;;9.73;3.95;;;;;;;;;;10440168;28;20079;-80
2023/09/03 02:17:55;;;;;;;7.10;3.92;;;;;;;;;;10434827;28;20437;-80
2023/09/03 02:22:58;;;;;;;9.60;3.92;;;;;;;;;;10442505;28;20435;-79
2023/09/03 02:28:01;;;;;;;9.07;4.30;;;;;;;;;;10439603;28;20072;-79
2023/09/03 02:33:05;;;;;;;10.02;3.85;;;;;;;;;;10439321;28;20165;-79
2023/09/03 02:38:07;;;;;;;8.68;4.00;;;;;;;;;;10441584;28;20142;-79
2023/09/03 02:43:10;;;;;;;8.95;3.72;;;;;;;;;;10439654;28;20085;-79
2023/09/03 02:48:14;;;;;;;8.48;3.58;;;;;;;;;;10442708;28;20075;-79
2023/09/03 02:53:17;;;;;;;5.57;3.28;;;;;;;;;;10442864;28;20033;-79
2023/09/03 02:58:20;;;;;;;5.82;3.05;;;;;;;;;;10445202;28;20051;-79
2023/09/03 03:03:24;;;;;;;5.72;3.00;;;;;;;;;;10447116;28;20049;-79
2023/09/03 03:08:27;;;;;;;7.50;3.33;;;;;;;;;;10436867;28;20071;-79
2023/09/03 03:13:29;;;;;;;6.88;3.33;;;;;;;;;;10443751;28;20064;-79
2023/09/03 03:18:34;;;;;;;8.57;3.38;;;;;;;;;;10447605;28;20106;-80
2023/09/03 03:23:37;;;;;;;7.10;3.40;;;;;;;;;;10438451;28;20045;-79
2023/09/03 03:28:39;;;;;;;6.50;3.60;;;;;;;;;;10438831;28;20049;-79
2023/09/03 03:33:44;;;;;;;6.97;2.92;;;;;;;;;;10437668;28;20544;-79
2023/09/03 03:38:46;;;;;;;4.60;2.63;;;;;;;;;;10433292;28;20114;-79
2023/09/03 03:43:50;;;;;;;5.43;2.58;;;;;;;;;;10438162;28;20095;-79
2023/09/03 03:48:54;;;;;;;5.65;2.72;;;;;;;;;;10433878;28;20033;-79
2023/09/03 03:53:59;;;;;;;6.18;3.40;;;;;;;;;;10439356;28;20041;-79
2023/09/03 03:59:01;;;;;;;5.57;2.85;;;;;;;;;;10437189;28;20497;-79
2023/09/03 04:04:06;;;;;;;5.43;2.63;;;;;;;;;;10440896;28;20047;-79
2023/09/03 04:09:08;;;;;;;6.20;2.85;;;;;;;;;;10431190;28;20037;-79
2023/09/03 04:14:11;;;;;;;6.00;3.00;;;;;;;;;;10443924;28;20109;-80
2023/09/03 04:19:15;;;;;;;4.97;2.38;;;;;;;;;;10440152;28;20037;-80
2023/09/03 04:24:18;;;;;;;5.28;2.60;;;;;;;;;;10436820;28;20137;-79
2023/09/03 04:29:20;;;;;;;6.43;2.97;;;;;;;;;;10433728;28;20053;-79
2023/09/03 04:34:24;;;;;;;7.15;2.92;;;;;;;;;;10434458;28;20044;-79
2023/09/03 04:39:27;;;;;;;4.32;2.78;;;;;;;;;;10440199;28;20045;-79
2023/09/03 04:44:29;;;;;;;4.63;2.92;;;;;;;;;;10438392;28;20124;-78
2023/09/03 04:49:33;;;;;;;5.03;2.70;;;;;;;;;;10443690;28;20060;-78
2023/09/03 04:54:36;;;;;;;4.13;2.30;;;;;;;;;;10448038;28;20458;-77
2023/09/03 04:59:39;;;;;;;7.90;2.93;;;;;;;;;;10441656;28;20076;-79
2023/09/03 05:04:42;;;;;;;8.32;3.00;;;;;;;;;;10443376;28;20111;-78
2023/09/03 05:09:45;;;;;;;6.38;2.78;;;;;;;;;;10448929;28;20040;-79
2023/09/03 05:14:48;;;;;;;5.47;2.58;;;;;;;;;;10448564;28;20041;-79
2023/09/03 05:19:52;;;;;;;6.13;3.15;;;;;;;;;;10447893;28;20088;-79
2023/09/03 05:24:55;;;;;;;6.00;3.00;;;;;;;;;;10438393;28;20119;-79
2023/09/03 05:29:57;;;;;;;4.13;2.60;;;;;;;;;;10436272;28;20045;-80
2023/09/03 05:35:01;;;;;;;4.72;3.03;;;;;;;;;;10436124;28;20136;-80
2023/09/03 05:40:05;;;;;;;6.05;3.05;;;;;;;;;;10452723;28;20047;-79
2023/09/03 05:45:07;;;;;;;;;;;;;;;;;;10447113;28;20600;-79
2023/09/03 05:50:11;;;;;;;4.45;2.60;;;;;;;;;;10442935;28;20003;-79
2023/09/03 05:55:14;;;;;;;5.47;2.85;;;;;;;;;;10439126;28;20581;-79
2023/09/03 06:00:17;;;;;;;5.23;3.03;;;;;;;;;;10439447;28;20051;-80
2023/09/03 06:05:21;;;;;;;4.93;2.80;;;;;;;;;;10447290;28;20128;-80
2023/09/03 06:10:23;;;;;;;7.90;3.00;;;;;;;;;;10445650;28;20298;-79
2023/09/03 06:15:26;;;;;;;5.83;2.97;;;;;;;;;;10440842;28;20067;-80
2023/09/03 06:20:32;;;;;;;5.17;3.13;;;;;;;;;;10435651;28;20095;-79
2023/09/03 06:25:35;;;;;;;5.43;3.35;;;;;;;;;;10437410;28;20038;-79
2023/09/03 06:30:38;;;;;;;6.33;3.53;;;;;;;;;;10449029;28;20047;-79
2023/09/03 06:35:41;;;;;;;6.10;3.33;;;;;;;;;;10444505;28;20060;-80
2023/09/03 06:40:44;;;;;;;6.97;3.35;;;;;;;;;;10438980;28;20091;-80
2023/09/03 06:45:47;;;;;;;8.90;3.88;;;;;;;;;;10439496;28;20124;-79
2023/09/03 06:50:51;;;;;;;6.22;3.70;;;;;;;;;;10434746;28;20096;-79
2023/09/03 06:55:53;;;;;;;5.80;3.72;;;;;;;;;;10440705;28;20558;-79
2023/09/03 07:00:56;;;;;;;7.32;3.50;;;;;;;;;;10448788;28;20518;-79
2023/09/03 07:06:00;;;;;;;5.40;3.28;;;;;;;;;;10440836;28;20091;-79
2023/09/03 07:11:02;;;;;;;6.38;3.60;;;;;;;;;;10441314;28;20052;-79
2023/09/03 07:16:05;;;;;;;7.60;3.80;;;;;;;;;;10433093;28;20068;-79
2023/09/03 07:21:08;;;;;;;;;;;;;;;;;;10440907;28;20094;-80
2023/09/03 07:26:11;;;;;;;7.43;3.60;;;;;;;;;;10444703;28;19920;-80
2023/09/03 07:31:14;;;;;;;6.35;3.53;;;;;;;;;;10445568;28;20041;-80
2023/09/03 07:36:17;;;;;;;4.18;3.10;;;;;;;;;;10437485;28;20048;-80
2023/09/03 07:41:20;;;;;;;5.45;3.03;;;;;;;;;;10433724;28;20094;-80
2023/09/03 07:46:23;;;;;;;4.25;3.10;;;;;;;;;;10443588;28;20065;-80
2023/09/03 07:51:26;;;;;;;4.72;2.70;;;;;;;;;;10441034;28;20057;-80
2023/09/03 07:56:31;;;;;;;4.60;2.65;;;;;;;;;;10441723;28;20506;-80
2023/09/03 08:01:34;;;;;;;5.32;2.70;;;;;;;;;;10439047;28;20049;-81
2023/09/03 08:06:37;;;;;;;3.95;2.40;;;;;;;;;;10435486;28;20136;-81
2023/09/03 08:11:40;;;;;;;4.88;2.17;;;;;;;;;;10447149;28;20037;-81
2023/09/03 08:16:43;;;;;;;5.75;2.55;;;;;;;;;;10445660;28;20095;-81
2023/09/03 08:21:47;;;;;;;3.28;2.42;;;;;;;;;;10437031;28;20042;-80
2023/09/03 08:26:51;;;;;;;5.28;2.20;;;;;;;;;;10440153;28;20066;-80
2023/09/03 08:31:54;;;;;;;3.50;2.40;;;;;;;;;;10445317;28;20073;-81
2023/09/03 08:36:56;;;;;;;4.78;2.53;;;;;;;;;;10443008;28;20049;-80
2023/09/03 08:42:00;;;;;;;2.88;2.10;;;;;;;;;;10445617;28;20040;-81
2023/09/03 08:47:04;;;;;;;4.55;3.33;;;;;;;;;;10454050;28;20111;-80
2023/09/03 08:52:08;;;;;;;2.83;2.20;;;;;;;;;;10443904;28;20540;-80
2023/09/03 08:57:12;;;;;;;3.25;2.05;;;;;;;;;;10443866;28;20048;-79
2023/09/03 09:02:16;;;;;;;9.32;2.40;;;;;;;;;;10441298;28;20090;-81
2023/09/03 09:07:19;;;;;;;4.95;2.90;;;;;;;;;;10435262;28;20118;-81
2023/09/03 09:12:28;;;;;;;3.50;1.95;;;;;;;;;;10443373;28;20127;-81
2023/09/03 09:17:36;;;;;;;2.60;2.10;;;;;;;;;;10448481;28;20044;-81
2023/09/03 09:22:39;;;;;;;2.95;1.88;;;;;;;;;;10443633;28;20053;-81
2023/09/03 09:27:43;;;;;;;3.90;2.25;;;;;;;;;;10437266;28;20051;-81
2023/09/03 09:32:47;;;;;;;2.30;1.50;;;;;;;;;;10440894;28;20051;-81
2023/09/03 09:37:49;;;;;;;2.63;1.70;;;;;;;;;;10447668;28;20098;-81
2023/09/03 09:42:54;;;;;;;1.67;1.50;;;;;;;;;;10440396;28;20060;-80
2023/09/03 09:48:03;;;;;;;4.20;2.47;;;;;;;;;;10444027;28;20072;-79
2023/09/03 09:53:07;;;;;;;4.15;1.60;;;;;;;;;;10441941;28;20041;-80
2023/09/03 09:58:12;;;;;;;1.50;1.40;;;;;;;;;;10431613;28;20562;-80
2023/09/03 10:03:15;;;;;;;2.40;1.67;;;;;;;;;;10446332;28;20136;-80
2023/09/03 10:08:18;;;;;;;3.28;2.10;;;;;;;;;;10443889;28;20049;-80
2023/09/03 10:13:22;;;;;;;2.75;1.60;;;;;;;;;;10445119;28;20037;-80
2023/09/03 10:18:27;;;;;;;3.55;2.70;;;;;;;;;;10437544;28;20044;-81
2023/09/03 10:23:34;;;;;;;2.22;2.03;;;;;;;;;;10432640;28;20386;-82
2023/09/03 10:28:42;;;;;;;4.43;1.67;;;;;;;;;;10440779;28;20064;-79
2023/09/03 10:33:45;;;;;;;4.50;3.08;;;;;;;;;;10443310;28;20128;-79
2023/09/03 10:38:47;;;;;;;2.60;2.40;;;;;;;;;;10440914;28;20045;-79
2023/09/03 10:43:52;;;;;;;3.03;1.85;;;;;;;;;;10439767;28;20037;-79
2023/09/03 10:48:55;;;;;;;3.15;1.83;;;;;;;;;;10437865;28;20132;-79
2023/09/03 10:54:14;;;;;;;2.17;1.70;;;;;;;;;;10449542;28;20040;-80
2023/09/03 10:59:18;;;;;;;2.50;1.90;;;;;;;;;;10439823;28;20120;-80
2023/09/03 11:04:21;;;;;;;2.17;1.80;;;;;;;;;;10444273;28;20132;-80
2023/09/03 11:09:24;;;;;;;3.83;1.98;;;;;;;;;;10443261;28;20064;-80
2023/09/03 11:14:31;;;;;;;1.60;1.50;;;;;;;;;;10432241;28;20442;-80
2023/09/03 11:19:39;;;;;;;2.08;1.52;;;;;;;;;;10432693;28;20128;-80
2023/09/03 11:24:48;;;;;;;2.03;1.70;;;;;;;;;;10445409;28;20174;-80
2023/09/03 11:30:02;;;;;;;3.13;1.73;;;;;;;;;;10440594;28;20115;-80
2023/09/03 11:35:05;;;;;;;2.17;1.80;;;;;;;;;;10433840;28;20530;-80
2023/09/03 11:40:09;;;;;;;3.80;2.47;;;;;;;;;;10443570;28;20071;-80
2023/09/03 11:45:13;;;;;;;2.05;1.80;;;;;;;;;;10431444;28;20463;-80
2023/09/03 11:50:17;;;;;;;3.17;1.60;;;;;;;;;;10450270;28;20426;-80
2023/09/03 11:55:20;;;;;;;2.83;2.25;;;;;;;;;;10443461;28;20040;-80
2023/09/03 12:00:24;;;;;;;2.75;1.65;;;;;;;;;;10440513;28;20140;-80
2023/09/03 12:05:27;;;;;;;2.47;1.75;;;;;;;;;;10437180;28;20037;-81
2023/09/03 12:10:30;;;;;;;3.35;1.75;;;;;;;;;;10429267;28;20052;-81
2023/09/03 12:15:34;;;;;;;2.55;2.00;;;;;;;;;;10437739;28;20041;-80
2023/09/03 12:20:37;;;;;;;3.88;1.85;;;;;;;;;;10452285;28;20049;-80
2023/09/03 12:25:40;;;;;;;5.43;1.90;;;;;;;;;;10442558;28;20114;-80
2023/09/03 12:30:57;;;;;;;2.60;1.80;;;;;;;;;;10430456;28;20081;-80
2023/09/03 12:36:04;;;;;;;1.83;1.70;;;;;;;;;;10433326;28;20047;-80
2023/09/03 12:41:06;;;;;;;2.85;1.40;;;;;;;;;;10445029;28;20079;-81
2023/09/03 12:46:11;;;;;;;1.50;1.40;;;;;;;;;;10437821;28;20124;-81
2023/09/03 12:51:15;;;;;;;2.70;1.50;;;;;;;;;;10436169;28;20670;-81
2023/09/03 12:56:18;;;;;;;1.73;1.30;;;;;;;;;;10453373;28;20128;-82
2023/09/03 13:01:22;;;;;;;3.05;2.03;;;;;;;;;;10426187;28;20600;-81
2023/09/03 13:06:25;;;;;;;1.48;1.35;;;;;;;;;;10435459;28;20723;-81
2023/09/03 13:11:28;;;;;;;4.13;2.20;;;;;;;;;;10454225;28;20053;-81
2023/09/03 13:16:32;;;;;;;2.85;1.50;;;;;;;;;;10448048;28;20103;-78
2023/09/03 13:21:37;;;;;;;1.45;1.35;;;;;;;;;;10442861;28;20555;-80
2023/09/03 13:26:40;;;;;;;1.98;1.58;;;;;;;;;;10436306;28;20053;-80
2023/09/03 13:31:44;;;;;;;3.25;1.40;;;;;;;;;;10436622;28;20419;-80
2023/09/03 13:36:46;;;;;;;3.95;2.60;;;;;;;;;;10445439;28;20489;-80
2023/09/03 13:41:52;;;;;;;3.45;2.15;;;;;;;;;;10443467;28;20494;-80
2023/09/03 13:46:56;;;;;;;2.50;1.20;;;;;;;;;;10446938;28;20091;-80
2023/09/03 13:51:59;;;;;;;1.27;1.00;;;;;;;;;;10452333;28;20041;-80
2023/09/03 13:57:01;;;;;;;1.40;1.30;;;;;;;;;;10443163;28;20497;-80
2023/09/03 14:02:06;;;;;;;2.90;1.75;;;;;;;;;;10453104;28;20044;-80
2023/09/03 14:07:08;;;;;;;2.17;1.55;;;;;;;;;;10443332;28;20044;-80
2023/09/03 14:12:11;;;;;;;2.10;1.20;;;;;;;;;;10447643;28;20067;-80
2023/09/03 14:17:15;;;;;;;1.50;1.40;;;;;;;;;;10451864;28;20133;-80
2023/09/03 14:22:18;;;;;;;1.65;1.10;;;;;;;;;;10439088;28;20076;-80
2023/09/03 14:27:20;;;;;;;3.85;1.52;;;;;;;;;;10438993;28;20090;-81
2023/09/03 14:32:24;;;;;;;1.50;1.38;;;;;;;;;;10445845;28;20113;-82
2023/09/03 14:37:27;;;;;;;1.77;1.13;;;;;;;;;;10446461;28;20056;-80
2023/09/03 14:42:30;;;;;;;2.05;1.40;;;;;;;;;;10440825;28;20040;-79
2023/09/03 14:47:34;;;;;;;3.33;1.88;;;;;;;;;;10434488;28;20350;-78
2023/09/03 14:52:37;;;;;;;2.42;1.60;;;;;;;;;;10441212;28;20059;-80
2023/09/03 14:57:39;;;;;;;1.65;1.20;;;;;;;;;;10445529;28;20041;-79
2023/09/03 15:02:43;;;;;;;1.88;1.30;;;;;;;;;;10441170;28;20388;-79
2023/09/03 15:07:46;;;;;;;1.42;1.30;;;;;;;;;;10445250;28;20322;-81
2023/09/03 15:12:49;;;;;;;2.40;1.65;;;;;;;;;;10436724;28;20128;-80
2023/09/03 15:17:53;;;;;;;1.70;1.33;;;;;;;;;;10436391;28;20033;-80
2023/09/03 15:22:55;;;;;;;5.45;2.88;;;;;;;;;;10451736;28;20095;-80
2023/09/03 15:27:58;;;;;;;1.65;1.20;;;;;;;;;;10442592;28;20409;-79
2023/09/03 15:33:04;;;;;;;2.20;1.38;;;;;;;;;;10443428;28;20490;-79
2023/09/03 15:38:07;;;;;;;2.65;1.42;;;;;;;;;;10433128;28;20064;-79
2023/09/03 15:43:10;;;;;;;1.20;1.10;;;;;;;;;;10436649;28;20644;-80
2023/09/03 15:48:14;;;;;;;6.72;3.17;;;;;;;;;;10445310;28;20033;-79
2023/09/03 15:53:17;;;;;;;1.27;1.00;;;;;;;;;;10446610;28;20127;-80
2023/09/03 15:58:20;;;;;;;2.13;1.25;;;;;;;;;;10437870;28;20037;-80
2023/09/03 16:03:24;;;;;;;2.75;1.60;;;;;;;;;;10442689;28;20040;-80
2023/09/03 16:08:26;;;;;;;6.35;1.42;;;;;;;;;;10435068;28;20149;-80
2023/09/03 16:13:29;;;;;;;;;;;;;;;;;;10439459;28;20064;-80
2023/09/03 16:18:33;;;;;;;3.78;1.33;;;;;;;;;;10438085;28;19921;-80
2023/09/03 16:23:35;;;;;;;1.52;1.10;;;;;;;;;;10438829;28;20045;-80
2023/09/03 16:28:38;;;;;;;2.00;1.48;;;;;;;;;;10432239;28;20512;-80
2023/09/03 16:33:42;;;;;;;2.72;1.77;;;;;;;;;;10434751;28;20079;-80
2023/09/03 16:38:44;;;;;;;2.65;1.27;;;;;;;;;;10437035;28;20060;-79
2023/09/03 16:43:47;;;;;;;2.10;1.50;;;;;;;;;;10438816;28;20123;-80
2023/09/03 16:48:51;;;;;;;3.95;1.77;;;;;;;;;;10440987;28;20127;-80
2023/09/03 16:53:54;;;;;;;6.45;2.97;;;;;;;;;;10438751;28;20146;-80
2023/09/03 16:58:56;;;;;;;1.75;1.30;;;;;;;;;;10436098;28;20056;-79
2023/09/03 17:04:00;;;;;;;2.72;1.30;;;;;;;;;;10437778;28;20465;-80
2023/09/03 17:09:03;;;;;;;2.42;1.38;;;;;;;;;;10446253;28;20103;-80
2023/09/03 17:14:06;;;;;;;1.80;1.40;;;;;;;;;;10448762;28;20158;-80
2023/09/03 17:19:09;;;;;;;2.30;1.33;;;;;;;;;;10445607;28;20055;-80
2023/09/03 17:24:13;;;;;;;2.90;1.65;;;;;;;;;;10439682;28;20033;-80
2023/09/03 17:29:16;;;;;;;5.43;1.67;;;;;;;;;;10443091;28;20149;-80
2023/09/03 17:34:21;;;;;;;5.00;2.42;;;;;;;;;;10449650;28;20064;-81
2023/09/03 17:39:24;;;;;;;9.13;2.15;;;;;;;;;;10447592;28;20392;-81
2023/09/03 17:44:29;;;;;;;3.35;1.67;;;;;;;;;;10442048;28;20090;-81
2023/09/03 17:49:33;;;;;;;3.70;2.10;;;;;;;;;;10442982;28;20490;-80
2023/09/03 17:54:36;;;;;;;5.32;2.88;;;;;;;;;;10438999;28;20514;-80
2023/09/03 17:59:38;;;;;;;4.70;1.83;;;;;;;;;;10445020;28;20065;-81
2023/09/03 18:04:42;;;;;;;8.63;3.10;;;;;;;;;;10439080;28;20052;-80
2023/09/03 18:09:45;;;;;;;6.05;2.15;;;;;;;;;;10437443;28;20116;-80
2023/09/03 18:14:47;;;;;;;3.30;1.50;;;;;;;;;;10444769;28;20045;-80
2023/09/03 18:19:51;;;;;;;9.95;6.03;;;;;;;;;;10445391;28;20466;-79
2023/09/03 18:24:54;;;;;;;4.38;2.28;;;;;;;;;;10438741;28;20423;-79
2023/09/03 18:29:58;;;;;;;5.03;2.10;;;;;;;;;;10445143;28;20049;-79
2023/09/03 18:35:02;;;;;;;15.82;9.02;;;;;;;;;;10442052;28;20042;-79
2023/09/03 18:40:06;;;;;;;5.00;2.17;;;;;;;;;;10439705;28;20502;-79
2023/09/03 18:45:08;;;;;;;3.90;2.30;;;;;;;;;;10434561;28;20041;-80
2023/09/03 18:50:12;;;;;;;5.15;2.45;;;;;;;;;;10436520;28;20105;-80
2023/09/03 18:55:15;;;;;;;4.93;2.20;;;;;;;;;;10446547;28;20075;-79
2023/09/03 19:00:17;;;;;;;15.53;7.20;;;;;;;;;;10447644;28;20124;-79
2023/09/03 19:05:22;;;;;;;24.17;11.27;;;;;;;;;;10438655;28;20122;-80
2023/09/03 19:10:25;;;;;;;6.93;2.45;;;;;;;;;;10436997;28;20467;-80
2023/09/03 19:15:27;;;;;;;7.50;2.50;;;;;;;;;;10427930;28;20110;-80
2023/09/03 19:20:31;;;;;;;5.97;2.53;;;;;;;;;;10445756;28;20037;-80
2023/09/03 19:25:40;;;;;;;4.35;2.67;;;;;;;;;;10442997;28;20060;-80
2023/09/03 19:30:43;;;;;;;8.52;2.83;;;;;;;;;;10436470;28;20454;-80
2023/09/03 19:35:50;;;;;;;7.55;3.15;;;;;;;;;;10434457;28;20046;-80
2023/09/03 19:40:53;;;;;;;7.00;3.83;;;;;;;;;;10429664;28;20108;-80
2023/09/03 19:45:56;;;;;;;11.20;5.60;;;;;;;;;;10433351;28;20053;-79
2023/09/03 19:51:01;;;;;;;4.10;2.45;;;;;;;;;;10445305;28;20049;-79
2023/09/03 19:56:05;;;;;;;9.13;4.50;;;;;;;;;;10437068;28;20072;-80
2023/09/03 20:01:10;;;;;;;9.13;4.97;;;;;;;;;;10439358;28;20091;-81
2023/09/03 20:06:14;;;;;;;4.82;2.40;;;;;;;;;;10479008;28;20051;-80
2023/09/03 20:11:17;;;;;;;4.85;2.40;;;;;;;;;;10475150;28;20128;-80
2023/09/03 20:16:21;;;;;;;3.60;2.38;;;;;;;;;;10481314;28;20045;-80
2023/09/03 20:21:24;;;;;;;;;;;;;;;;;;10481387;28;20112;-80
2023/09/03 20:26:30;;;;;;;8.63;3.40;;;;;;;;;;10481659;28;19932;-80
2023/09/03 20:31:33;;;;;;;14.13;7.95;;;;;;;;;;10480185;28;20041;-80
2023/09/03 20:36:36;;;;;;;6.20;3.13;;;;;;;;;;10482568;28;20083;-80
2023/09/03 20:41:40;;;;;;;5.23;2.90;;;;;;;;;;10490879;28;20120;-80
2023/09/03 20:46:43;;;;;;;12.70;4.53;;;;;;;;;;10485804;28;20302;-81
2023/09/03 20:51:45;;;;;;;9.20;5.32;;;;;;;;;;10484110;28;20051;-80
2023/09/03 20:56:49;;;;;;;6.00;3.45;;;;;;;;;;10486143;28;20487;-79
2023/09/03 21:01:53;;;;;;;6.82;3.20;;;;;;;;;;10476135;28;20041;-80
2023/09/03 21:06:56;;;;;;;5.85;3.20;;;;;;;;;;10493315;28;20150;-80
2023/09/03 21:12:00;;;;;;;7.10;2.97;;;;;;;;;;10487715;28;20071;-79
2023/09/03 21:17:02;;;;;;;5.50;3.05;;;;;;;;;;10478676;28;20457;-79
2023/09/03 21:22:05;;;;;;;5.37;3.10;;;;;;;;;;10478607;28;20045;-79
2023/09/03 21:27:09;;;;;;;9.35;3.97;;;;;;;;;;10469686;28;20069;-79
2023/09/03 21:32:13;;;;;;;4.53;2.65;;;;;;;;;;10488640;28;20044;-79
2023/09/03 21:37:16;;;;;;;9.07;3.38;;;;;;;;;;10488191;28;20265;-79
2023/09/03 21:42:20;;;;;;;4.18;2.60;;;;;;;;;;10481521;28;20091;-79
2023/09/03 21:47:22;;;;;;;8.25;4.65;;;;;;;;;;10483145;28;20079;-79
2023/09/03 21:52:25;;;;;;;4.22;2.42;;;;;;;;;;10485622;28;20036;-79
2023/09/03 21:57:30;;;;;;;7.88;3.70;;;;;;;;;;10478184;28;20036;-80
2023/09/03 22:02:33;;;;;;;4.25;2.63;;;;;;;;;;10489632;28;20040;-80
2023/09/03 22:07:36;;;;;;;6.33;3.60;;;;;;;;;;10485887;28;20339;-80
2023/09/03 22:12:40;;;;;;;6.77;3.37;;;;;;;;;;10479972;28;20089;-79
2023/09/03 22:17:42;;;;;;;6.22;3.03;;;;;;;;;;10479720;28;20052;-80
2023/09/03 22:22:45;;;;;;;6.63;3.60;;;;;;;;;;10458145;28;20097;-80
2023/09/03 22:27:49;;;;;;;9.07;3.77;;;;;;;;;;10485566;28;20116;-80
2023/09/03 22:32:51;;;;;;;6.05;3.35;;;;;;;;;;10491629;28;20072;-80
2023/09/03 22:37:54;;;;;;;8.90;5.20;;;;;;;;;;10487384;28;20066;-80
2023/09/03 22:42:58;;;;;;;11.40;6.97;;;;;;;;;;10480031;28;20056;-79
2023/09/03 22:48:00;;;;;;;7.00;3.80;;;;;;;;;;10477949;28;20037;-79
2023/09/03 22:53:03;;;;;;;8.50;4.30;;;;;;;;;;10480228;28;20041;-79
2023/09/03 22:58:07;;;;;;;9.13;3.70;;;;;;;;;;10482391;28;20048;-79
2023/09/03 23:03:10;;;;;;;7.50;4.05;;;;;;;;;;10479126;28;20127;-79
2023/09/03 23:08:13;;;;;;;7.20;3.70;;;;;;;;;;10473130;28;20048;-78
2023/09/03 23:13:17;;;;;;;7.85;3.58;;;;;;;;;;10475490;28;20077;-80
2023/09/03 23:18:21;;;;;;;7.45;4.00;;;;;;;;;;10481021;28;20123;-79
2023/09/03 23:23:24;;;;;;;8.15;4.10;;;;;;;;;;10481840;28;20049;-80
2023/09/03 23:28:28;;;;;;;5.90;3.60;;;;;;;;;;10480563;28;20037;-79
2023/09/03 23:33:33;;;;;;;9.75;4.47;;;;;;;;;;10477675;28;20045;-79
2023/09/03 23:38:36;;;;;;;8.60;3.88;;;;;;;;;;10485160;28;20044;-80
2023/09/03 23:43:40;;;;;;;13.70;7.10;;;;;;;;;;10470160;28;20060;-79
2023/09/03 23:48:43;;;;;;;4.80;3.20;;;;;;;;;;10479766;28;20044;-79
2023/09/03 23:53:46;;;;;;;7.13;3.60;;;;;;;;;;10463450;28;20106;-80
2023/09/03 23:58:50;;;;;;;6.47;3.38;;;;;;;;;;10475243;28;20098;-79
